עמוד ראשי
METAR-TAF:

METAR-TAF

שדות תעופה :

Jinotega, ניקרגואה

קו רוחב: 13-05N, קו אורך: 085-59W, גובה: 985מטר

תצפית מזג אוויר נוכחית

הדו"ח נערך לפני 7 שעות ו 5דקות, בשעה 23:00 UTC
רוח רגועה
טמפרטורת 30 צלסיוס
לחות 38%
לחץ 1011 hPa
ראות: 7000מטר
עננים פזורים בגובה 2000רגל
עשן,

METAR: MNJG 262300Z 00000KT 7000 SCT020 30/14 Q1011 FU

זמן: 00:05 (06:05 UTC)


TAF: חסר

תצפיות ותחזיות מזג אוויר לגבי יותר מ- 4,000 שדות תעופה ברחבי העולם. דוחות METAR ו- TAF.

התחנות הזמינות מסומנות בנקודות צהובות ואדומות על גבי המפה.

העבר את העכבר לנקודה הצבעונית על מנת לראות את שם התחנה.

לאחר מכן, לחץ כדי לראות את תוכן ואת תחזיות מזג האוויר.

כדי לשנות את המפה: לחץ על הכפתורים הירוקים עם הפלוס השחור כדי להתקרב; על הכפתור הירוק עם המקף כדי להתרחק; או בחיצים הירוקים למפות סמוכות.


METAR-TAF: